Decoded Metar for KMAO (MARION in SC, USA) (IATA:MAO) | Meteo·Mobile Aviation Weather
aviador You're here:

KMAO Decoded Metar

MARION in SC, USA
Report Time2018-12-12 00:55:00
UTC Time2018-12-12 01:02:22
Flight Rules vfr VFR
WindCalm
Visibility9999 m
Phenomena:N/A
Clouds:N/A
Expected CloudBase > 400 ft AGL from Temp-Dew spread
CeilingNone
Temp01°C (ISA -14)
Dew Point00°C (93% RH)
AAT-1.0°C
QNH1023 hPa
Density Alt-1,850 ft
Elevation92 ft
Report Wrong Elevation
Raw Report
METAR KMAO 120055Z AUTO 00000KT 10SM CLR 01/00 A3020 RMK AO2=

Extra information for KMAO:More info

Metar Taf Metar & Taf Last 4 Metars F.Rules Stats Wind Profile Meteogram Temp Stats Airport Information Weather charts Add Link Nearby VenuesMetar ALERT Operation Metar Decoded Social comments

AIRNAV info for KMAO